createdAt,value
2018-11-14T00:00:27.052Z,1005.45
2018-11-14T00:01:27.229Z,1005.46
2018-11-14T00:02:27.407Z,1005.43
2018-11-14T00:03:27.570Z,1005.48
2018-11-14T00:04:27.743Z,1005.48
2018-11-14T00:05:27.916Z,1005.51
2018-11-14T00:06:28.077Z,1005.48
2018-11-14T00:07:28.250Z,1005.51
2018-11-14T00:08:28.422Z,1005.52
2018-11-14T00:09:28.637Z,1005.53
2018-11-14T00:10:28.767Z,1005.53
2018-11-14T00:11:28.945Z,1005.53
2018-11-14T00:12:29.111Z,1005.54
2018-11-14T00:13:29.285Z,1005.52
2018-11-14T00:14:29.470Z,1005.53
2018-11-14T00:15:29.634Z,1005.51
2018-11-14T00:16:29.808Z,1005.56
2018-11-14T00:17:29.977Z,1005.57
2018-11-14T00:18:30.146Z,1005.58
2018-11-14T00:19:30.399Z,1005.57
2018-11-14T00:20:30.497Z,1005.60
2018-11-14T00:21:30.664Z,1005.59
2018-11-14T00:22:30.831Z,1005.61
2018-11-14T00:23:31.003Z,1005.62
2018-11-14T00:24:31.172Z,1005.64
2018-11-14T00:25:31.358Z,1005.61
2018-11-14T00:26:31.513Z,1005.61
2018-11-14T00:27:31.682Z,1005.61
2018-11-14T00:28:31.852Z,1005.65
2018-11-14T00:29:32.223Z,1005.64
2018-11-14T00:30:32.208Z,1005.69
2018-11-14T00:31:32.387Z,1005.73
2018-11-14T00:32:32.547Z,1005.77
2018-11-14T00:33:32.733Z,1005.79
2018-11-14T00:34:32.894Z,1005.82
2018-11-14T00:35:33.078Z,1005.78
2018-11-14T00:36:33.237Z,1005.79
2018-11-14T00:37:33.407Z,1005.78
2018-11-14T00:38:33.591Z,1005.80
2018-11-14T00:39:33.752Z,1005.80
2018-11-14T00:40:33.915Z,1005.79
2018-11-14T00:41:34.093Z,1005.79
2018-11-14T00:42:34.277Z,1005.83
2018-11-14T00:43:34.456Z,1005.78
2018-11-14T00:44:34.617Z,1005.80
2018-11-14T00:45:34.794Z,1005.78
2018-11-14T00:46:34.980Z,1005.76
2018-11-14T00:47:35.136Z,1005.80
2018-11-14T00:48:35.302Z,1005.81
2018-11-14T00:49:35.481Z,1005.81
2018-11-14T00:50:35.652Z,1005.84
2018-11-14T00:51:35.821Z,1005.83
2018-11-14T00:52:36.006Z,1005.86
2018-11-14T00:53:36.179Z,1005.88
2018-11-14T00:54:36.366Z,1005.91
2018-11-14T00:55:36.524Z,1005.90
2018-11-14T00:56:36.690Z,1005.93
2018-11-14T00:57:36.873Z,1005.92
2018-11-14T00:58:37.037Z,1005.99
2018-11-14T00:59:37.215Z,1005.97
2018-11-14T01:00:37.389Z,1005.97
2018-11-14T01:01:37.728Z,1005.97
2018-11-14T01:02:37.739Z,1006.02
2018-11-14T01:03:37.905Z,1005.97
2018-11-14T01:04:38.068Z,1005.99
2018-11-14T01:06:38.417Z,1006.03
2018-11-14T01:07:38.597Z,1005.99
2018-11-14T01:08:38.781Z,1006.06
2018-11-14T01:09:38.950Z,1006.04
2018-11-14T01:10:39.129Z,1006.07
2018-11-14T01:11:39.309Z,1006.07
2018-11-14T01:12:39.481Z,1006.04
2018-11-14T01:13:39.667Z,1006.05
2018-11-14T01:14:39.829Z,1006.04
2018-11-14T01:15:40.000Z,1006.04
2018-11-14T01:16:40.174Z,1006.05
2018-11-14T01:17:40.356Z,1006.02
2018-11-14T01:18:40.528Z,1006.02
2018-11-14T01:19:40.687Z,1006.00
2018-11-14T01:20:40.873Z,1006.04
2018-11-14T01:21:41.083Z,1006.01
2018-11-14T01:22:41.226Z,1006.00
2018-11-14T01:23:41.398Z,1006.03
2018-11-14T01:24:41.572Z,1006.00
2018-11-14T01:25:41.744Z,1006.04
2018-11-14T01:26:41.909Z,1006.01
2018-11-14T01:27:42.088Z,1006.04
2018-11-14T01:28:42.262Z,1006.03
2018-11-14T01:29:42.432Z,1006.03
2018-11-14T01:30:42.609Z,1006.03
2018-11-14T01:31:42.780Z,1006.01
2018-11-14T01:32:42.952Z,1005.99
2018-11-14T01:33:43.139Z,1006.02
2018-11-14T01:34:43.296Z,1005.99
2018-11-14T01:35:43.480Z,1006.03
2018-11-14T01:36:43.635Z,1006.02
2018-11-14T01:37:43.807Z,1006.02
2018-11-14T01:38:43.986Z,1005.99
2018-11-14T01:39:44.152Z,1005.99
2018-11-14T01:40:44.315Z,1005.96
2018-11-14T01:41:44.489Z,1005.96
2018-11-14T01:42:44.664Z,1005.93
2018-11-14T01:43:44.837Z,1005.82
2018-11-14T01:44:45.014Z,1005.90
2018-11-14T01:45:45.183Z,1005.89
2018-11-14T01:46:45.357Z,1005.88
2018-11-14T01:47:45.527Z,1005.80
2018-11-14T01:48:45.698Z,1005.77
2018-11-14T01:49:45.872Z,1005.74
2018-11-14T01:50:46.048Z,1005.82
2018-11-14T01:51:46.214Z,1005.77
2018-11-14T01:52:46.399Z,1005.83
2018-11-14T01:53:46.557Z,1005.79
2018-11-14T01:54:46.726Z,1005.84
2018-11-14T01:55:46.904Z,1005.77
2018-11-14T01:56:47.054Z,1005.78
2018-11-14T01:57:47.237Z,1005.74
2018-11-14T01:58:47.409Z,1005.74
2018-11-14T01:59:47.585Z,1005.73
2018-11-14T02:00:47.752Z,1005.78
2018-11-14T02:01:47.929Z,1005.80
2018-11-14T02:02:48.104Z,1005.81
2018-11-14T02:03:48.284Z,1005.79
2018-11-14T02:04:48.444Z,1005.79
2018-11-14T02:05:48.611Z,1005.75
2018-11-14T02:06:48.785Z,1005.81
2018-11-14T02:07:48.973Z,1005.79
2018-11-14T02:08:49.135Z,1005.81
2018-11-14T02:09:49.294Z,1005.77
2018-11-14T02:10:49.468Z,1005.77
2018-11-14T02:11:49.634Z,1005.77
2018-11-14T02:12:49.822Z,1005.75
2018-11-14T02:13:49.977Z,1005.70
2018-11-14T02:14:50.146Z,1005.75
2018-11-14T02:15:50.329Z,1005.73
2018-11-14T02:16:50.488Z,1005.76
2018-11-14T02:17:50.683Z,1005.79
2018-11-14T02:18:50.828Z,1005.85
2018-11-14T02:19:51.001Z,1005.83
2018-11-14T02:20:51.172Z,1005.83
2018-11-14T02:21:51.350Z,1005.89
2018-11-14T02:22:51.524Z,1005.89
2018-11-14T02:23:51.694Z,1005.97
2018-11-14T02:24:51.871Z,1005.96
2018-11-14T02:25:52.045Z,1005.96
2018-11-14T02:26:52.217Z,1005.92
2018-11-14T02:27:52.389Z,1005.98
2018-11-14T02:28:52.566Z,1005.97
2018-11-14T02:29:52.734Z,1005.93
2018-11-14T02:30:52.908Z,1005.93
2018-11-14T02:31:53.079Z,1005.91
2018-11-14T02:32:53.255Z,1005.90
2018-11-14T02:33:53.427Z,1005.92
2018-11-14T02:34:53.603Z,1005.86
2018-11-14T02:35:53.765Z,1005.96
2018-11-14T02:36:53.943Z,1005.91
2018-11-14T02:37:54.112Z,1005.89
2018-11-14T02:38:54.287Z,1005.94
2018-11-14T02:39:54.466Z,1005.96
2018-11-14T02:40:54.623Z,1005.95
2018-11-14T02:41:54.805Z,1005.99
2018-11-14T02:42:54.971Z,1005.95
2018-11-14T02:43:55.145Z,1005.97
2018-11-14T02:44:55.315Z,1005.90
2018-11-14T02:45:55.482Z,1005.92
2018-11-14T02:46:55.665Z,1005.94
2018-11-14T02:47:55.831Z,1005.95
2018-11-14T02:48:56.004Z,1006.00
2018-11-14T02:49:56.177Z,1005.92
2018-11-14T02:50:56.349Z,1005.96
2018-11-14T02:51:56.543Z,1005.90
2018-11-14T02:52:56.693Z,1005.90
2018-11-14T02:53:56.863Z,1005.90
2018-11-14T02:54:57.044Z,1005.89
2018-11-14T02:55:57.215Z,1005.94
2018-11-14T02:56:57.383Z,1005.89
2018-11-14T02:57:57.564Z,1005.87
2018-11-14T02:58:57.729Z,1005.92
2018-11-14T02:59:57.901Z,1005.95
2018-11-14T03:00:58.074Z,1005.93
2018-11-14T03:01:58.243Z,1005.97
2018-11-14T03:02:58.419Z,1005.94
2018-11-14T03:03:58.591Z,1005.97
2018-11-14T03:04:58.762Z,1005.92
2018-11-14T03:05:58.938Z,1005.96
2018-11-14T03:06:59.101Z,1005.94
2018-11-14T03:07:59.284Z,1005.87
2018-11-14T03:08:59.447Z,1005.89
2018-11-14T03:09:59.620Z,1005.84
2018-11-14T03:10:59.798Z,1005.84
2018-11-14T03:11:59.966Z,1005.83
2018-11-14T03:13:00.160Z,1005.84
2018-11-14T03:14:00.310Z,1005.80
2018-11-14T03:15:00.483Z,1005.78
2018-11-14T03:16:00.648Z,1005.81
2018-11-14T03:17:00.825Z,1005.78
2018-11-14T03:18:01.005Z,1005.77
2018-11-14T03:19:01.169Z,1005.73
2018-11-14T03:20:01.342Z,1005.70
2018-11-14T03:21:01.515Z,1005.71
2018-11-14T03:22:01.684Z,1005.78
2018-11-14T03:23:01.857Z,1005.73
2018-11-14T03:24:02.030Z,1005.75
2018-11-14T03:25:02.204Z,1005.78
2018-11-14T03:26:02.378Z,1005.72
2018-11-14T03:27:02.552Z,1005.76
2018-11-14T03:28:02.718Z,1005.73
2018-11-14T03:29:02.892Z,1005.76
2018-11-14T03:30:03.065Z,1005.73
2018-11-14T03:31:03.251Z,1005.75
2018-11-14T03:32:03.416Z,1005.75
2018-11-14T03:33:03.581Z,1005.79
2018-11-14T03:34:03.749Z,1005.74
2018-11-14T03:35:03.920Z,1005.76
2018-11-14T03:36:04.093Z,1005.77
2018-11-14T03:37:04.265Z,1005.74
2018-11-14T03:38:04.445Z,1005.74
2018-11-14T03:39:04.597Z,1005.76
2018-11-14T03:40:04.774Z,1005.71
2018-11-14T03:41:04.926Z,1005.73
2018-11-14T03:42:05.104Z,1005.70
2018-11-14T03:43:05.273Z,1005.72
2018-11-14T03:44:05.441Z,1005.69
2018-11-14T03:45:05.612Z,1005.69
2018-11-14T03:46:05.787Z,1005.65
2018-11-14T03:47:05.963Z,1005.69
2018-11-14T03:48:06.135Z,1005.68
2018-11-14T03:49:06.305Z,1005.69
2018-11-14T03:50:06.479Z,1005.73
2018-11-14T03:51:06.649Z,1005.73
2018-11-14T03:52:06.822Z,1005.77
2018-11-14T03:53:07.006Z,1005.79
2018-11-14T03:54:07.175Z,1005.81
2018-11-14T03:55:07.345Z,1005.85
2018-11-14T03:56:07.527Z,1005.80
2018-11-14T03:57:07.694Z,1005.83
2018-11-14T03:58:07.927Z,1005.82
2018-11-14T03:59:08.047Z,1005.82
2018-11-14T04:00:08.216Z,1005.79
2018-11-14T04:01:08.384Z,1005.79
2018-11-14T04:02:08.559Z,1005.74
2018-11-14T04:03:08.737Z,1005.77
2018-11-14T04:04:08.905Z,1005.78
2018-11-14T04:05:09.078Z,1005.73
2018-11-14T04:06:09.254Z,1005.71
2018-11-14T04:07:09.427Z,1005.72
2018-11-14T04:08:09.603Z,1005.71
2018-11-14T04:09:09.795Z,1005.72
2018-11-14T04:10:09.947Z,1005.72
2018-11-14T04:11:10.120Z,1005.68
2018-11-14T04:12:10.290Z,1005.70
2018-11-14T04:13:10.461Z,1005.67
2018-11-14T04:14:10.633Z,1005.67
2018-11-14T04:15:10.807Z,1005.67
2018-11-14T04:16:10.980Z,1005.69
2018-11-14T04:17:11.158Z,1005.70
2018-11-14T04:18:11.325Z,1005.66
2018-11-14T04:19:11.497Z,1005.68
2018-11-14T04:20:11.662Z,1005.66
2018-11-14T04:21:11.832Z,1005.68
2018-11-14T04:22:12.011Z,1005.62
2018-11-14T04:23:12.184Z,1005.68
2018-11-14T04:24:12.350Z,1005.65
2018-11-14T04:25:12.521Z,1005.63
2018-11-14T04:26:12.695Z,1005.64
2018-11-14T04:27:12.868Z,1005.63
2018-11-14T04:28:13.039Z,1005.60
2018-11-14T04:29:13.227Z,1005.60
2018-11-14T04:30:13.406Z,1005.60
2018-11-14T04:31:13.568Z,1005.65
2018-11-14T04:32:13.736Z,1005.62
2018-11-14T04:33:13.910Z,1005.61
2018-11-14T04:34:14.086Z,1005.61
2018-11-14T04:35:14.257Z,1005.64
2018-11-14T04:36:14.424Z,1005.63
2018-11-14T04:37:14.610Z,1005.59
2018-11-14T04:38:14.763Z,1005.60
2018-11-14T04:39:14.939Z,1005.59
2018-11-14T04:40:15.120Z,1005.60
2018-11-14T04:41:15.282Z,1005.54
2018-11-14T04:42:15.505Z,1005.52
2018-11-14T04:43:15.631Z,1005.47
2018-11-14T04:44:15.802Z,1005.47
2018-11-14T04:45:15.984Z,1005.48
2018-11-14T04:46:16.146Z,1005.53
2018-11-14T04:47:16.320Z,1005.51
2018-11-14T04:48:16.572Z,1005.50
2018-11-14T04:49:16.681Z,1005.53
2018-11-14T04:50:16.835Z,1005.54
2018-11-14T04:51:17.003Z,1005.52
2018-11-14T04:52:17.182Z,1005.46
2018-11-14T04:53:17.362Z,1005.52
2018-11-14T04:54:17.521Z,1005.51
2018-11-14T04:55:17.696Z,1005.49
2018-11-14T04:56:17.855Z,1005.50
2018-11-14T04:57:18.031Z,1005.45
2018-11-14T04:58:18.204Z,1005.50
2018-11-14T04:59:18.371Z,1005.48
2018-11-14T05:00:18.549Z,1005.44
2018-11-14T05:01:18.724Z,1005.43
2018-11-14T05:02:18.924Z,1005.42
2018-11-14T05:03:19.066Z,1005.46
2018-11-14T05:04:19.226Z,1005.49
2018-11-14T05:05:19.409Z,1005.45
2018-11-14T05:06:19.571Z,1005.51
2018-11-14T05:07:19.743Z,1005.48
2018-11-14T05:08:19.914Z,1005.45
2018-11-14T05:09:20.108Z,1005.45
2018-11-14T05:10:20.286Z,1005.43
2018-11-14T05:11:20.460Z,1005.42
2018-11-14T05:12:20.624Z,1005.36
2018-11-14T05:13:20.792Z,1005.41
2018-11-14T05:14:20.965Z,1005.39
2018-11-14T05:15:21.140Z,1005.37
2018-11-14T05:16:21.308Z,1005.37
2018-11-14T05:17:21.489Z,1005.34
2018-11-14T05:18:21.641Z,1005.35
2018-11-14T05:19:21.812Z,1005.35
2018-11-14T05:20:21.987Z,1005.38
2018-11-14T05:21:22.159Z,1005.35
2018-11-14T05:22:22.324Z,1005.36
2018-11-14T05:23:22.496Z,1005.41
2018-11-14T05:24:22.716Z,1005.46
2018-11-14T05:25:22.833Z,1005.42
2018-11-14T05:26:23.021Z,1005.40
2018-11-14T05:27:23.175Z,1005.41
2018-11-14T05:28:23.349Z,1005.42
2018-11-14T05:29:23.522Z,1005.43
2018-11-14T05:30:23.699Z,1005.47
2018-11-14T05:31:23.860Z,1005.50
2018-11-14T05:32:24.031Z,1005.45
2018-11-14T05:33:24.201Z,1005.46
2018-11-14T05:34:24.372Z,1005.45
2018-11-14T05:35:24.544Z,1005.46
2018-11-14T05:36:24.740Z,1005.41
2018-11-14T05:37:24.893Z,1005.42
2018-11-14T05:38:25.061Z,1005.38
2018-11-14T05:39:25.255Z,1005.36
2018-11-14T05:40:25.409Z,1005.37
2018-11-14T05:41:25.584Z,1005.32
2018-11-14T05:42:25.753Z,1005.33
2018-11-14T05:43:25.927Z,1005.35
2018-11-14T05:44:26.096Z,1005.37
2018-11-14T05:45:26.360Z,1005.37
2018-11-14T05:46:26.441Z,1005.37
2018-11-14T05:47:26.615Z,1005.44
2018-11-14T05:48:26.785Z,1005.37
2018-11-14T05:49:26.984Z,1005.39
2018-11-14T05:50:27.120Z,1005.40
2018-11-14T05:51:27.298Z,1005.39
2018-11-14T05:52:27.470Z,1005.39
2018-11-14T05:53:27.640Z,1005.39
2018-11-14T05:55:27.991Z,1005.42
2018-11-14T05:56:28.170Z,1005.48
2018-11-14T05:57:28.339Z,1005.51
2018-11-14T05:58:28.533Z,1005.50
2018-11-14T05:59:28.673Z,1005.45
2018-11-14T06:00:28.842Z,1005.47
2018-11-14T06:01:29.019Z,1005.48
2018-11-14T06:02:29.190Z,1005.41
2018-11-14T06:03:29.372Z,1005.46
2018-11-14T06:04:29.578Z,1005.47
2018-11-14T06:05:29.739Z,1005.48
2018-11-14T06:06:29.908Z,1005.49
2018-11-14T06:07:30.090Z,1005.48
2018-11-14T06:08:30.258Z,1005.52
2018-11-14T06:09:30.407Z,1005.52
2018-11-14T06:10:30.591Z,1005.53
2018-11-14T06:11:30.758Z,1005.50
2018-11-14T06:12:30.928Z,1005.49
2018-11-14T06:13:31.097Z,1005.43
2018-11-14T06:14:31.271Z,1005.41
2018-11-14T06:15:31.446Z,1005.46
2018-11-14T06:16:32.185Z,1005.51
2018-11-14T06:17:31.829Z,1005.50
2018-11-14T06:18:31.998Z,1005.52
2018-11-14T06:19:32.166Z,1005.50
2018-11-14T06:20:32.337Z,1005.54
2018-11-14T06:21:32.518Z,1005.62
2018-11-14T06:22:32.689Z,1005.57
2018-11-14T06:23:32.865Z,1005.57
2018-11-14T06:24:33.094Z,1005.58
2018-11-14T06:25:33.186Z,1005.59
2018-11-14T06:26:33.360Z,1005.57
2018-11-14T06:27:33.550Z,1005.55
2018-11-14T06:28:33.727Z,1005.61
2018-11-14T06:29:33.961Z,1005.65
2018-11-14T06:30:34.078Z,1005.63
2018-11-14T06:31:34.256Z,1005.66
2018-11-14T06:32:34.405Z,1005.66
2018-11-14T06:33:34.596Z,1005.60
2018-11-14T06:34:34.763Z,1005.59
2018-11-14T06:35:34.940Z,1005.56
2018-11-14T06:36:35.110Z,1005.59
2018-11-14T06:37:35.274Z,1005.60
2018-11-14T06:38:35.454Z,1005.57
2018-11-14T06:39:35.622Z,1005.55
2018-11-14T06:40:35.797Z,1005.55
2018-11-14T06:41:36.046Z,1005.56
2018-11-14T06:42:36.148Z,1005.51
2018-11-14T06:43:36.323Z,1005.58
2018-11-14T06:44:36.503Z,1005.58
2018-11-14T06:45:36.670Z,1005.57
2018-11-14T06:46:36.844Z,1005.52
2018-11-14T06:47:37.025Z,1005.48
2018-11-14T06:48:37.189Z,1005.49
2018-11-14T06:49:37.361Z,1005.52
2018-11-14T06:50:37.542Z,1005.54
2018-11-14T06:51:37.705Z,1005.52
2018-11-14T06:52:37.880Z,1005.54
2018-11-14T06:53:38.052Z,1005.52
2018-11-14T06:54:38.262Z,1005.55
2018-11-14T06:55:38.392Z,1005.57
2018-11-14T06:56:38.575Z,1005.64
2018-11-14T06:57:38.742Z,1005.63
2018-11-14T06:58:38.924Z,1005.66
2018-11-14T06:59:39.143Z,1005.67
2018-11-14T07:00:39.260Z,1005.69
2018-11-14T07:01:39.438Z,1005.71
2018-11-14T07:02:39.610Z,1005.70
2018-11-14T07:03:39.782Z,1005.69
2018-11-14T07:04:39.963Z,1005.73
2018-11-14T07:05:40.217Z,1005.73
2018-11-14T07:06:40.299Z,1005.74
2018-11-14T07:07:40.470Z,1005.73
2018-11-14T07:08:40.659Z,1005.74
2018-11-14T07:09:40.815Z,1005.73
2018-11-14T07:10:41.003Z,1005.73
2018-11-14T07:11:41.161Z,1005.73
2018-11-14T07:12:41.333Z,1005.75
2018-11-14T07:13:41.504Z,1005.78
2018-11-14T07:14:41.673Z,1005.76
2018-11-14T07:15:41.848Z,1005.85
2018-11-14T07:16:42.016Z,1005.81
2018-11-14T07:17:42.264Z,1005.84
2018-11-14T07:18:42.365Z,1005.83
2018-11-14T07:19:42.538Z,1005.81
2018-11-14T07:20:42.712Z,1005.87
2018-11-14T07:21:42.885Z,1005.81
2018-11-14T07:22:43.058Z,1005.82
2018-11-14T07:23:43.280Z,1005.85
2018-11-14T07:24:43.546Z,1005.82
2018-11-14T07:25:43.583Z,1005.86
2018-11-14T07:26:43.752Z,1005.81
2018-11-14T07:27:43.933Z,1005.82
2018-11-14T07:28:44.095Z,1005.81
2018-11-14T07:29:44.263Z,1005.84
2018-11-14T07:30:44.440Z,1005.84
2018-11-14T07:32:44.779Z,1005.70
2018-11-14T07:33:44.951Z,1005.76
2018-11-14T07:34:45.128Z,1005.77
2018-11-14T07:35:45.292Z,1005.80
2018-11-14T07:36:45.466Z,1005.82
2018-11-14T07:37:45.676Z,1005.86
2018-11-14T07:38:45.809Z,1005.88
2018-11-14T07:39:45.982Z,1005.90
2018-11-14T07:40:46.146Z,1005.89
2018-11-14T07:41:46.320Z,1005.92
2018-11-14T07:42:46.506Z,1005.90
2018-11-14T07:43:46.795Z,1005.94
2018-11-14T07:44:46.863Z,1005.91
2018-11-14T07:45:47.025Z,1005.82
2018-11-14T07:46:47.186Z,1005.85
2018-11-14T07:47:47.371Z,1005.85
2018-11-14T07:48:47.580Z,1005.83
2018-11-14T07:49:47.693Z,1005.87
2018-11-14T07:50:47.864Z,1005.88
2018-11-14T07:51:48.061Z,1005.87
2018-11-14T07:52:48.239Z,1005.85
2018-11-14T07:53:48.422Z,1005.88
2018-11-14T07:54:48.737Z,1005.91
2018-11-14T07:55:48.747Z,1005.92
2018-11-14T07:56:48.930Z,1005.88
2018-11-14T07:57:49.099Z,1005.85
2018-11-14T07:58:49.253Z,1005.86
2018-11-14T07:59:49.415Z,1005.86
2018-11-14T08:00:49.589Z,1005.85
2018-11-14T08:01:49.778Z,1005.87
2018-11-14T08:02:49.941Z,1005.88
2018-11-14T08:03:50.117Z,1005.90
2018-11-14T08:04:50.328Z,1005.85
2018-11-14T08:05:50.502Z,1005.87
2018-11-14T08:06:50.677Z,1005.85
2018-11-14T08:07:50.874Z,1005.83
2018-11-14T08:08:51.052Z,1005.89
2018-11-14T08:09:51.216Z,1005.91
2018-11-14T08:10:51.383Z,1005.95
2018-11-14T08:11:51.559Z,1005.94
2018-11-14T08:12:51.743Z,1005.93
2018-11-14T08:13:51.905Z,1005.96
2018-11-14T08:14:52.079Z,1005.92
2018-11-14T08:15:52.251Z,1005.87
2018-11-14T08:16:52.423Z,1005.88
2018-11-14T08:17:52.590Z,1005.85
2018-11-14T08:18:52.836Z,1005.88
2018-11-14T08:19:52.932Z,1005.90
2018-11-14T08:20:53.097Z,1005.87
2018-11-14T08:21:53.265Z,1005.90
2018-11-14T08:22:53.421Z,1005.90
2018-11-14T08:23:53.611Z,1005.94
2018-11-14T08:24:53.788Z,1005.91
2018-11-14T08:25:53.955Z,1005.94
2018-11-14T08:26:54.123Z,1006.00
2018-11-14T08:27:54.297Z,1005.96
2018-11-14T08:28:54.464Z,1006.02
2018-11-14T08:29:54.644Z,1005.99
2018-11-14T08:30:54.810Z,1006.01
2018-11-14T08:31:54.984Z,1006.02
2018-11-14T08:32:55.159Z,1005.97
2018-11-14T08:33:55.333Z,1005.98
2018-11-14T08:34:55.506Z,1006.00
2018-11-14T08:35:55.675Z,1006.01
2018-11-14T08:36:55.847Z,1006.02
2018-11-14T08:37:56.026Z,1006.04
2018-11-14T08:38:57.150Z,1005.98
2018-11-14T08:39:57.161Z,1005.97
2018-11-14T08:40:56.668Z,1006.00
2018-11-14T08:41:56.769Z,1005.98
2018-11-14T08:42:56.908Z,1005.99
2018-11-14T08:43:57.004Z,1006.01
2018-11-14T08:44:57.167Z,1006.01
2018-11-14T08:45:57.344Z,1005.99
2018-11-14T08:46:57.513Z,1005.97
2018-11-14T08:47:57.685Z,1005.98
2018-11-14T08:48:57.862Z,1005.91
2018-11-14T08:49:58.024Z,1005.92
2018-11-14T08:50:58.231Z,1005.91
2018-11-14T08:51:58.363Z,1005.90
2018-11-14T08:52:58.521Z,1005.90
2018-11-14T08:53:58.708Z,1005.92
2018-11-14T08:54:58.874Z,1005.91
2018-11-14T08:55:59.040Z,1005.90
2018-11-14T08:56:59.209Z,1005.86
2018-11-14T08:57:59.460Z,1005.84
2018-11-14T08:58:59.556Z,1005.87
2018-11-14T08:59:59.716Z,1005.86
2018-11-14T09:00:59.892Z,1005.84
2018-11-14T09:02:00.052Z,1005.86
2018-11-14T09:03:00.225Z,1005.85
2018-11-14T09:04:00.392Z,1005.86
2018-11-14T09:05:00.560Z,1005.85
2018-11-14T09:06:00.771Z,1005.88
2018-11-14T09:07:00.906Z,1005.91
2018-11-14T09:08:01.086Z,1005.90
2018-11-14T09:09:01.250Z,1005.87
2018-11-14T09:10:01.435Z,1005.85
2018-11-14T09:11:01.612Z,1005.87
2018-11-14T09:12:01.778Z,1005.85
2018-11-14T09:13:02.036Z,1005.83
2018-11-14T09:14:02.123Z,1005.86
2018-11-14T09:15:02.401Z,1005.84
2018-11-14T09:16:02.464Z,1005.84
2018-11-14T09:17:02.639Z,1005.84
2018-11-14T09:18:02.806Z,1005.93
2018-11-14T09:19:02.976Z,1005.90
2018-11-14T09:20:03.153Z,1005.95
2018-11-14T09:21:03.325Z,1005.89
2018-11-14T09:22:03.504Z,1005.93
2018-11-14T09:23:03.673Z,1005.92
2018-11-14T09:24:03.847Z,1005.97
2018-11-14T09:25:04.106Z,1005.98
2018-11-14T09:26:04.193Z,1005.95
2018-11-14T09:27:04.367Z,1005.99
2018-11-14T09:28:04.542Z,1005.96
2018-11-14T09:29:04.735Z,1005.94
2018-11-14T09:30:04.899Z,1005.92
2018-11-14T09:31:05.075Z,1005.95
2018-11-14T09:32:05.250Z,1005.93
2018-11-14T09:33:05.465Z,1005.99
2018-11-14T09:34:05.597Z,1006.02
2018-11-14T09:35:05.777Z,1006.07
2018-11-14T09:36:05.945Z,1006.04
2018-11-14T09:37:06.120Z,1006.05
2018-11-14T09:38:06.293Z,1006.06
2018-11-14T09:39:06.464Z,1006.05
2018-11-14T09:40:06.641Z,1006.07
2018-11-14T09:41:06.847Z,1006.00
2018-11-14T09:42:06.999Z,1006.05
2018-11-14T09:43:07.178Z,1006.11
2018-11-14T09:44:07.353Z,1006.04
2018-11-14T09:45:07.530Z,1006.06
2018-11-14T09:46:07.709Z,1006.03
2018-11-14T09:47:07.881Z,1006.07
2018-11-14T09:48:08.078Z,1006.07
2018-11-14T09:49:08.259Z,1006.06
2018-11-14T09:50:08.405Z,1006.08
2018-11-14T09:51:08.586Z,1006.04
2018-11-14T09:52:08.753Z,1006.06
2018-11-14T09:53:09.016Z,1006.02
2018-11-14T09:54:09.106Z,1006.07
2018-11-14T09:55:09.294Z,1006.03
2018-11-14T09:56:09.473Z,1006.07
2018-11-14T09:57:09.778Z,1006.07
2018-11-14T09:58:09.786Z,1006.00
2018-11-14T09:59:09.958Z,1005.89
2018-11-14T10:00:10.133Z,1005.92
2018-11-14T10:01:10.314Z,1005.87
2018-11-14T10:02:10.479Z,1005.87
2018-11-14T10:03:10.653Z,1005.88
2018-11-14T10:04:10.845Z,1005.89
2018-11-14T10:05:11.003Z,1005.86
2018-11-14T10:06:11.279Z,1005.87
2018-11-14T10:07:11.526Z,1005.93
2018-11-14T10:08:11.594Z,1005.90
2018-11-14T10:09:11.776Z,1005.85
2018-11-14T10:10:11.970Z,1005.85
2018-11-14T10:11:12.166Z,1005.82
2018-11-14T10:12:12.325Z,1005.85
2018-11-14T10:13:12.490Z,1005.83
2018-11-14T10:14:12.663Z,1005.83
2018-11-14T10:15:12.835Z,1005.79
2018-11-14T10:16:13.009Z,1005.79
2018-11-14T10:17:13.183Z,1005.78
2018-11-14T10:18:13.358Z,1005.76
2018-11-14T10:19:13.528Z,1005.72
2018-11-14T10:20:13.746Z,1005.78
2018-11-14T10:21:13.938Z,1005.72
2018-11-14T10:22:14.051Z,1005.75
2018-11-14T10:23:14.221Z,1005.78
2018-11-14T10:24:14.413Z,1005.76
2018-11-14T10:25:14.581Z,1005.74
2018-11-14T10:26:14.751Z,1005.78
2018-11-14T10:27:14.925Z,1005.69
2018-11-14T10:28:15.107Z,1005.76
2018-11-14T10:29:15.282Z,1005.73
2018-11-14T10:30:15.514Z,1005.72
2018-11-14T10:31:15.640Z,1005.76
2018-11-14T10:32:15.808Z,1005.73
2018-11-14T10:33:15.989Z,1005.70
2018-11-14T10:34:16.231Z,1005.74
2018-11-14T10:35:16.312Z,1005.72
2018-11-14T10:36:16.490Z,1005.73
2018-11-14T10:37:16.666Z,1005.72
2018-11-14T10:38:16.865Z,1005.77
2018-11-14T10:39:17.105Z,1005.77
2018-11-14T10:40:17.203Z,1005.78
2018-11-14T10:41:17.373Z,1005.84
2018-11-14T10:42:17.558Z,1005.80
2018-11-14T10:43:17.734Z,1005.81
2018-11-14T10:44:17.898Z,1005.81
2018-11-14T10:45:18.075Z,1005.80
2018-11-14T10:46:18.268Z,1005.81
2018-11-14T10:47:18.417Z,1005.82
2018-11-14T10:48:18.582Z,1005.75
2018-11-14T10:49:18.757Z,1005.78
2018-11-14T10:50:18.932Z,1005.81
2018-11-14T10:51:19.112Z,1005.78
2018-11-14T10:52:19.289Z,1005.82
2018-11-14T10:53:19.468Z,1005.80
2018-11-14T10:54:19.644Z,1005.81
2018-11-14T10:55:19.810Z,1005.81
2018-11-14T10:56:19.986Z,1005.85
2018-11-14T10:57:20.152Z,1005.83
2018-11-14T10:58:20.383Z,1005.85
2018-11-14T10:59:20.518Z,1005.87
2018-11-14T11:00:20.695Z,1005.92
2018-11-14T11:01:20.874Z,1005.89
2018-11-14T11:02:21.132Z,1005.91
2018-11-14T11:03:21.209Z,1005.87
2018-11-14T11:04:21.377Z,1005.84
2018-11-14T11:05:21.557Z,1005.79
2018-11-14T11:06:21.734Z,1005.78
2018-11-14T11:07:21.907Z,1005.77
2018-11-14T11:08:22.155Z,1005.79
2018-11-14T11:09:22.261Z,1005.79
2018-11-14T11:10:22.431Z,1005.75
2018-11-14T11:11:22.603Z,1005.77
2018-11-14T11:12:22.757Z,1005.80
2018-11-14T11:13:22.946Z,1005.80
2018-11-14T11:14:23.130Z,1005.78
2018-11-14T11:15:23.286Z,1005.77
2018-11-14T11:16:23.474Z,1005.79
2018-11-14T11:17:23.650Z,1005.80
2018-11-14T11:18:23.818Z,1005.81
2018-11-14T11:19:23.982Z,1005.81
2018-11-14T11:20:24.154Z,1005.77
2018-11-14T11:21:24.350Z,1005.71
2018-11-14T11:22:24.523Z,1005.71
2018-11-14T11:23:24.753Z,1005.63
2018-11-14T11:24:24.864Z,1005.61
2018-11-14T11:25:25.044Z,1005.54
2018-11-14T11:26:25.216Z,1005.52
2018-11-14T11:27:25.397Z,1005.51
2018-11-14T11:28:25.558Z,1005.49
2018-11-14T11:29:25.735Z,1005.53
2018-11-14T11:30:25.894Z,1005.55
2018-11-14T11:31:26.085Z,1005.58
2018-11-14T11:32:26.261Z,1005.65
2018-11-14T11:33:26.430Z,1005.62
2018-11-14T11:34:26.604Z,1005.64
2018-11-14T11:35:26.781Z,1005.62
2018-11-14T11:36:26.954Z,1005.62
2018-11-14T11:37:27.134Z,1005.62
2018-11-14T11:38:27.306Z,1005.67
2018-11-14T11:39:27.479Z,1005.64
2018-11-14T11:40:27.653Z,1005.67
2018-11-14T11:41:27.849Z,1005.69
2018-11-14T11:42:28.022Z,1005.66
2018-11-14T11:43:28.187Z,1005.67
2018-11-14T11:44:28.381Z,1005.66
2018-11-14T11:45:28.531Z,1005.61
2018-11-14T11:46:28.710Z,1005.62
2018-11-14T11:47:28.963Z,1005.67
2018-11-14T11:48:29.068Z,1005.64
2018-11-14T11:49:29.203Z,1005.57
2018-11-14T11:50:29.454Z,1005.62
2018-11-14T11:51:29.553Z,1005.59
2018-11-14T11:52:29.731Z,1005.57
2018-11-14T11:53:29.908Z,1005.58
2018-11-14T11:54:30.094Z,1005.57
2018-11-14T11:55:30.293Z,1005.57
2018-11-14T11:56:30.431Z,1005.50
2018-11-14T11:57:30.708Z,1005.54
2018-11-14T11:58:30.788Z,1005.54
2018-11-14T11:59:31.044Z,1005.55
2018-11-14T12:00:31.301Z,1005.54
2018-11-14T12:01:31.306Z,1005.57
2018-11-14T12:02:31.481Z,1005.55
2018-11-14T12:03:31.667Z,1005.56
2018-11-14T12:04:31.838Z,1005.54
2018-11-14T12:05:32.003Z,1005.55
2018-11-14T12:06:32.253Z,1005.55
2018-11-14T12:07:32.352Z,1005.52
2018-11-14T12:08:32.527Z,1005.57
2018-11-14T12:09:32.705Z,1005.54
2018-11-14T12:10:32.935Z,1005.50